Time;durP1;ratioP1;P1;durP2;ratioP2;P2;SDS_P1;SDS_P2;PMS_P1;PMS_P2;Temp;Humidity;BMP_temperature;BMP_pressure;BME280_temperature;BME280_humidity;BME280_pressure;Samples;Min_cycle;Max_cycle;Signal;HPM_P1;HPM_P2
2022/10/27 00:01:34;;;;;;;5.30;3.13;;;17.60;70.90;;;;;;4994458;28;20179;-75
2022/10/27 00:04:00;;;;;;;8.85;2.90;;;17.60;70.10;;;;;;4992933;28;20174;-76
2022/10/27 00:06:26;;;;;;;9.32;3.05;;;17.50;70.70;;;;;;4994623;28;20179;-76
2022/10/27 00:08:51;;;;;;;5.72;3.15;;;17.60;71.70;;;;;;4994435;28;20171;-75
2022/10/27 00:11:17;;;;;;;6.93;2.78;;;17.50;69.10;;;;;;4994400;28;20652;-76
2022/10/27 00:13:43;;;;;;;5.40;2.77;;;17.50;75.00;;;;;;4994486;28;20171;-75
2022/10/27 00:16:16;;;;;;;4.85;2.85;;;17.40;78.40;;;;;;4994398;28;20216;-76
2022/10/27 00:18:42;;;;;;;5.13;2.80;;;17.40;81.80;;;;;;4994084;28;20246;-75
2022/10/27 00:21:10;;;;;;;6.73;3.00;;;17.40;78.00;;;;;;4994059;28;20206;-76
2022/10/27 00:23:37;;;;;;;6.77;3.23;;;17.30;80.80;;;;;;4994332;28;20167;-74
2022/10/27 00:26:03;;;;;;;4.23;3.00;;;17.30;84.20;;;;;;4994242;28;20638;-76
2022/10/27 00:28:29;;;;;;;5.45;3.13;;;17.30;83.40;;;;;;4994178;28;20174;-76
2022/10/27 00:31:19;;;;;;;8.67;3.23;;;17.40;80.10;;;;;;4993799;28;20266;-76
2022/10/27 00:33:47;;;;;;;4.03;2.72;;;17.30;78.20;;;;;;4990670;28;20186;-76
2022/10/27 00:36:15;;;;;;;3.85;2.80;;;17.30;79.40;;;;;;4994178;28;20655;-75
2022/10/27 00:38:41;;;;;;;8.10;3.10;;;17.20;84.70;;;;;;4993970;28;20172;-75
2022/10/27 00:41:23;;;;;;;4.70;2.60;;;17.20;87.00;;;;;;4993850;28;20183;-76
2022/10/27 00:43:48;;;;;;;6.10;2.63;;;17.20;88.80;;;;;;4993962;28;20207;-75
2022/10/27 00:46:33;;;;;;;3.80;2.70;;;17.20;81.90;;;;;;4994029;28;20253;-75
2022/10/27 00:49:12;;;;;;;5.73;3.00;;;17.20;82.80;;;;;;4993682;28;20202;-76
2022/10/27 00:51:47;;;;;;;3.58;2.67;;;17.30;78.10;;;;;;4993725;28;20313;-75
2022/10/27 00:54:16;;;;;;;4.53;2.67;;;17.20;78.30;;;;;;4992683;28;20183;-75
2022/10/27 00:56:44;;;;;;;5.77;2.63;;;17.20;80.40;;;;;;4994005;28;20228;-75
2022/10/27 00:59:10;;;;;;;3.67;2.73;;;17.10;84.80;;;;;;4993868;28;20175;-76
2022/10/27 01:01:37;;;;;;;4.47;2.50;;;17.10;85.90;;;;;;4993307;28;20178;-76
2022/10/27 01:04:03;;;;;;;3.80;2.60;;;17.00;89.10;;;;;;4992639;28;20167;-75
2022/10/27 01:06:29;;;;;;;3.77;2.57;;;17.00;89.80;;;;;;4993773;28;20218;-76
2022/10/27 01:08:56;;;;;;;4.67;2.63;;;17.00;85.60;;;;;;4993701;28;20194;-75
2022/10/27 01:11:22;;;;;;;5.00;2.60;;;16.90;90.50;;;;;;4993546;28;20206;-76
2022/10/27 01:13:48;;;;;;;4.90;2.50;;;16.90;87.60;;;;;;4992550;28;20579;-76
2022/10/27 01:16:29;;;;;;;3.73;2.20;;;16.90;88.20;;;;;;4991986;28;20183;-76
2022/10/27 01:19:18;;;;;;;3.97;2.70;;;16.90;85.60;;;;;;4993877;28;20172;-76
2022/10/27 01:21:49;;;;;;;5.83;2.40;;;16.90;86.20;;;;;;4989610;28;20250;-76
2022/10/27 01:24:43;;;;;;;4.83;2.63;;;16.90;85.90;;;;;;4993752;28;20177;-75
2022/10/27 01:27:21;;;;;;;10.93;2.87;;;16.90;86.80;;;;;;4993334;28;20175;-76
2022/10/27 01:30:13;;;;;;;8.82;2.38;;;16.90;86.20;;;;;;4993290;28;20635;-74
2022/10/27 01:32:54;;;;;;;5.07;2.47;;;16.90;84.30;;;;;;4993538;28;20277;-75
2022/10/27 01:35:32;;;;;;;3.37;2.60;;;16.80;88.90;;;;;;4993427;28;20686;-76
2022/10/27 01:38:06;;;;;;;5.53;2.30;;;16.80;92.10;;;;;;4993664;28;20203;-75
2022/10/27 01:40:44;;;;;;;4.53;2.60;;;16.80;94.70;;;;;;4993402;28;20261;-75
2022/10/27 01:43:16;;;;;;;4.90;2.57;;;16.70;95.10;;;;;;4993273;28;20179;-76
2022/10/27 01:45:42;;;;;;;4.27;2.30;;;16.60;98.10;;;;;;4995804;28;20254;-75
2022/10/27 01:48:09;;;;;;;7.60;2.80;;;16.60;99.80;;;;;;4995938;28;20175;-75
2022/10/27 01:50:38;;;;;;;6.03;2.43;;;16.50;99.90;;;;;;4995413;28;20660;-75
2022/10/27 01:53:04;;;;;;;6.43;2.73;;;16.50;99.90;;;;;;4996913;28;20179;-75
2022/10/27 01:55:29;;;;;;;3.87;2.60;;;16.50;99.90;;;;;;4995804;28;20179;-75
2022/10/27 01:58:05;;;;;;;6.37;2.50;;;16.50;99.90;;;;;;4995474;28;20661;-75
2022/10/27 02:00:34;;;;;;;3.73;2.63;;;16.50;99.90;;;;;;4996470;28;20167;-75
2022/10/27 02:03:09;;;;;;;6.73;2.43;;;16.50;99.90;;;;;;4996748;28;20175;-75
2022/10/27 02:06:01;;;;;;;4.03;2.13;;;16.40;99.90;;;;;;4996780;28;20174;-75
2022/10/27 02:08:30;;;;;;;3.50;2.30;;;16.40;99.60;;;;;;4995493;28;20179;-75
2022/10/27 02:11:02;;;;;;;4.77;2.40;;;16.40;97.90;;;;;;4995391;28;20250;-76
2022/10/27 02:13:29;;;;;;;4.40;2.20;;;16.50;96.40;;;;;;4996776;28;20182;-76
2022/10/27 02:16:00;;;;;;;4.00;2.30;;;16.50;95.00;;;;;;4996256;28;20171;-75
2022/10/27 02:18:39;;;;;;;4.80;2.17;;;16.50;94.10;;;;;;4996475;28;20166;-74
2022/10/27 02:21:08;;;;;;;4.33;2.33;;;16.40;93.60;;;;;;4996397;28;20174;-75
2022/10/27 02:23:34;;;;;;;4.73;1.90;;;16.30;96.10;;;;;;4996420;28;20175;-75
2022/10/27 02:26:22;;;;;;;3.93;2.10;;;16.30;96.40;;;;;;4995168;28;20187;-76
2022/10/27 02:29:01;;;;;;;5.93;2.17;;;16.30;93.90;;;;;;4995972;28;20172;-76
2022/10/27 02:31:36;;;;;;;3.73;1.97;;;16.30;93.80;;;;;;4976657;28;20219;-75
2022/10/27 02:34:03;;;;;;;2.73;1.97;;;16.20;93.90;;;;;;4976812;28;20171;-76
2022/10/27 02:36:29;;;;;;;4.60;2.13;;;16.30;93.40;;;;;;4976696;28;20223;-74
2022/10/27 02:38:54;;;;;;;3.37;2.10;;;16.30;91.40;;;;;;4976729;28;20233;-77
2022/10/27 02:41:20;;;;;;;4.47;2.17;;;16.30;90.90;;;;;;4976629;28;20640;-75
2022/10/27 02:43:46;;;;;;;3.40;2.10;;;16.20;90.40;;;;;;4974936;28;20192;-74
2022/10/27 02:46:11;;;;;;;5.40;1.87;;;16.20;90.30;;;;;;4976375;28;20188;-76
2022/10/27 02:48:37;;;;;;;3.83;2.00;;;16.20;89.90;;;;;;4976531;28;20187;-75
2022/10/27 02:51:02;;;;;;;4.13;2.00;;;16.20;80.50;;;;;;4976208;28;20290;-76
2022/10/27 02:53:28;;;;;;;3.53;1.60;;;16.30;77.50;;;;;;4976317;28;20179;-76
2022/10/27 02:55:54;;;;;;;5.53;2.03;;;16.30;70.70;;;;;;4975763;28;20193;-76
2022/10/27 02:58:19;;;;;;;3.40;2.10;;;16.30;72.40;;;;;;4975742;28;20655;-75
2022/10/27 03:00:45;;;;;;;3.63;1.80;;;16.30;66.50;;;;;;4976291;28;20178;-75
2022/10/27 03:03:10;;;;;;;4.27;1.87;;;16.30;68.10;;;;;;4976158;28;20526;-75
2022/10/27 03:05:36;;;;;;;2.20;1.73;;;16.30;69.90;;;;;;4976261;28;20211;-75
2022/10/27 03:08:02;;;;;;;5.30;1.80;;;16.30;66.00;;;;;;4976206;28;20662;-75
2022/10/27 03:10:28;;;;;;;3.50;1.63;;;16.30;64.40;;;;;;4974728;28;20223;-75
2022/10/27 03:12:54;;;;;;;5.57;1.67;;;16.30;63.30;;;;;;4974227;28;20524;-75
2022/10/27 03:15:19;;;;;;;3.37;1.80;;;16.30;58.30;;;;;;4975905;28;20176;-75
2022/10/27 03:17:46;;;;;;;4.33;1.60;;;16.30;55.30;;;;;;4976038;28;20290;-75
2022/10/27 03:20:13;;;;;;;5.63;1.77;;;16.40;52.90;;;;;;4975292;28;20187;-75
2022/10/27 03:22:39;;;;;;;3.60;1.70;;;16.30;52.30;;;;;;4975507;28;20191;-75
2022/10/27 03:25:06;;;;;;;3.90;1.60;;;16.40;51.10;;;;;;4975736;28;20284;-75
2022/10/27 03:27:32;;;;;;;4.50;1.90;;;16.40;49.40;;;;;;4975324;28;20186;-75
2022/10/27 03:29:57;;;;;;;6.10;1.93;;;16.30;51.00;;;;;;4983830;28;20223;-75
2022/10/27 03:32:23;;;;;;;3.40;1.80;;;16.30;52.90;;;;;;4994904;28;20219;-75
2022/10/27 03:34:49;;;;;;;5.00;1.90;;;16.40;49.80;;;;;;4994962;28;20174;-75
2022/10/27 03:37:14;;;;;;;5.57;1.83;;;16.40;47.90;;;;;;4994953;28;20623;-75
2022/10/27 03:39:40;;;;;;;6.87;2.50;;;16.40;48.60;;;;;;4994752;28;20179;-76
2022/10/27 03:42:05;;;;;;;5.57;1.70;;;16.40;50.10;;;;;;4994080;28;20175;-75
2022/10/27 03:44:31;;;;;;;5.27;2.03;;;16.40;51.30;;;;;;4994528;28;20182;-75
2022/10/27 03:46:57;;;;;;;3.90;2.00;;;16.50;50.30;;;;;;4994547;28;20650;-76
2022/10/27 03:49:22;;;;;;;6.70;2.20;;;16.60;47.50;;;;;;4994879;28;20171;-75
2022/10/27 03:51:48;;;;;;;2.40;1.80;;;16.60;45.80;;;;;;4994382;28;20221;-75
2022/10/27 03:54:13;;;;;;;3.50;1.93;;;16.60;45.20;;;;;;4994335;28;20685;-75
2022/10/27 03:56:39;;;;;;;3.80;2.03;;;16.60;45.40;;;;;;4993825;28;20175;-74
2022/10/27 03:59:05;;;;;;;5.13;1.90;;;16.60;46.00;;;;;;4994029;28;20197;-76
2022/10/27 04:01:33;;;;;;;3.53;1.73;;;16.60;43.50;;;;;;4994483;28;20542;-75
2022/10/27 04:03:58;;;;;;;3.80;1.90;;;16.60;44.50;;;;;;4992948;28;20164;-75
2022/10/27 04:06:24;;;;;;;3.20;1.80;;;16.60;41.80;;;;;;4994293;28;20197;-75
2022/10/27 04:08:50;;;;;;;3.83;1.83;;;16.60;42.20;;;;;;4993459;28;20203;-75
2022/10/27 04:11:15;;;;;;;5.83;1.87;;;16.60;39.00;;;;;;4993131;28;20679;-76
2022/10/27 04:13:41;;;;;;;3.10;1.40;;;16.70;37.00;;;;;;4994088;28;20183;-75
2022/10/27 04:16:07;;;;;;;1.77;1.50;;;16.70;35.30;;;;;;4994038;28;20176;-75
2022/10/27 04:18:33;;;;;;;2.33;1.60;;;16.70;33.10;;;;;;4994258;28;20195;-75
2022/10/27 04:21:03;;;;;;;3.53;1.80;;;16.70;32.90;;;;;;4993841;28;20203;-75
2022/10/27 04:23:28;;;;;;;4.57;1.60;;;16.70;31.30;;;;;;4993638;28;20640;-75
2022/10/27 04:25:55;;;;;;;3.30;1.57;;;16.70;26.80;;;;;;4992448;28;20185;-76
2022/10/27 04:28:21;;;;;;;3.27;1.60;;;16.80;19.10;;;;;;4993672;28;20184;-75
2022/10/27 04:30:47;;;;;;;2.70;1.60;;;16.80;17.30;;;;;;4992427;28;20756;-75
2022/10/27 04:33:13;;;;;;;2.57;1.50;;;16.90;4.10;;;;;;4993630;28;20250;-75
2022/10/27 04:35:39;;;;;;;2.67;1.50;;;16.90;1.00;;;;;;4993757;28;20715;-76
2022/10/27 04:38:04;;;;;;;2.90;1.60;;;17.00;1.00;;;;;;4993594;28;20167;-75
2022/10/27 04:40:30;;;;;;;3.80;1.67;;;17.00;1.00;;;;;;4993311;28;20188;-75
2022/10/27 04:42:55;;;;;;;2.20;1.40;;;17.00;1.00;;;;;;4993425;28;20167;-75
2022/10/27 04:45:22;;;;;;;2.50;1.30;;;17.10;1.00;;;;;;4993663;28;20171;-75
2022/10/27 04:47:47;;;;;;;3.37;1.23;;;17.20;1.00;;;;;;4993300;28;20294;-76
2022/10/27 04:50:14;;;;;;;2.37;1.47;;;17.20;1.00;;;;;;4993389;28;20254;-74
2022/10/27 04:52:40;;;;;;;2.07;1.17;;;17.30;1.00;;;;;;4993103;28;20407;-75
2022/10/27 04:55:07;;;;;;;2.90;1.40;;;17.30;1.00;;;;;;4993277;28;20175;-75
2022/10/27 04:57:32;;;;;;;2.93;1.33;;;17.30;1.00;;;;;;4993065;28;20292;-75
2022/10/27 04:59:58;;;;;;;1.63;1.20;;;17.30;1.00;;;;;;4993083;28;20280;-75
2022/10/27 05:02:24;;;;;;;1.87;1.30;;;17.20;1.00;;;;;;4993288;28;20241;-76
2022/10/27 05:04:49;;;;;;;3.10;1.30;;;17.20;1.00;;;;;;4993171;28;20175;-75
2022/10/27 05:07:15;;;;;;;1.27;0.93;;;17.20;1.00;;;;;;4992331;28;20248;-73
2022/10/27 05:09:41;;;;;;;1.93;1.10;;;17.20;1.00;;;;;;4992741;28;20183;-75
2022/10/27 05:12:06;;;;;;;3.33;1.00;;;17.20;1.00;;;;;;4992882;28;20611;-75
2022/10/27 05:14:32;;;;;;;1.30;1.17;;;17.20;1.00;;;;;;4993122;28;20635;-75
2022/10/27 05:16:57;;;;;;;5.47;1.67;;;17.10;1.00;;;;;;4992573;28;20599;-75
2022/10/27 05:19:23;;;;;;;3.80;1.20;;;17.20;1.00;;;;;;4992940;28;20167;-75
2022/10/27 05:21:48;;;;;;;2.27;1.23;;;17.10;1.00;;;;;;4995017;28;20643;-75
2022/10/27 05:24:14;;;;;;;2.00;1.20;;;17.10;1.00;;;;;;4995987;28;20174;-75
2022/10/27 05:26:40;;;;;;;4.23;1.30;;;17.10;1.00;;;;;;4996477;28;20709;-75
2022/10/27 05:29:06;;;;;;;6.40;1.30;;;17.10;1.00;;;;;;4996247;28;20194;-75
2022/10/27 05:31:32;;;;;;;4.10;1.50;;;17.00;1.00;;;;;;4997120;28;20218;-75
2022/10/27 05:33:57;;;;;;;3.57;1.30;;;16.90;1.00;;;;;;4996581;28;20532;-75
2022/10/27 05:36:23;;;;;;;3.00;1.40;;;16.90;1.00;;;;;;4996413;28;20175;-75
2022/10/27 05:38:49;;;;;;;2.37;1.30;;;16.90;1.00;;;;;;4996089;28;20874;-74
2022/10/27 05:41:14;;;;;;;3.53;1.50;;;16.90;1.00;;;;;;4996301;28;20179;-76
2022/10/27 05:43:40;;;;;;;1.30;1.20;;;16.90;1.00;;;;;;4996268;28;20170;-75
2022/10/27 05:46:06;;;;;;;3.57;1.40;;;16.90;1.00;;;;;;4996376;28;20176;-75
2022/10/27 05:48:32;;;;;;;3.63;1.67;;;16.80;1.00;;;;;;4996717;28;20565;-75
2022/10/27 05:50:58;;;;;;;3.97;1.60;;;16.90;1.00;;;;;;4995258;28;20217;-75
2022/10/27 05:53:24;;;;;;;3.47;1.73;;;16.90;1.00;;;;;;4995799;28;20255;-75
2022/10/27 05:55:53;;;;;;;2.50;1.60;;;16.90;1.00;;;;;;4995885;28;20203;-75
2022/10/27 05:58:19;;;;;;;9.93;2.27;;;16.80;1.00;;;;;;4995913;28;20216;-75
2022/10/27 06:00:44;;;;;;;3.03;1.57;;;16.80;1.00;;;;;;4996108;28;20180;-75
2022/10/27 06:03:22;;;;;;;1.60;1.50;;;16.70;1.00;;;;;;4995753;28;20226;-75
2022/10/27 06:05:48;;;;;;;3.43;1.53;;;16.60;1.00;;;;;;4995070;28;20223;-75
2022/10/27 06:08:15;;;;;;;1.83;1.70;;;16.60;1.00;;;;;;4995854;28;20175;-75
2022/10/27 06:10:40;;;;;;;3.13;1.80;;;16.60;1.00;;;;;;4995341;28;20254;-75
2022/10/27 06:13:09;;;;;;;5.30;1.70;;;16.60;1.00;;;;;;4993863;28;20187;-76
2022/10/27 06:15:35;;;;;;;5.47;1.60;;;16.50;1.00;;;;;;4995351;28;20206;-75
2022/10/27 06:18:01;;;;;;;2.00;1.60;;;16.60;1.00;;;;;;4995100;28;20211;-76
2022/10/27 06:20:26;;;;;;;4.77;2.07;;;16.50;1.00;;;;;;4994991;28;20183;-75
2022/10/27 06:22:52;;;;;;;3.57;1.53;;;16.50;1.00;;;;;;4995728;28;20647;-75
2022/10/27 06:25:18;;;;;;;3.23;1.73;;;16.50;1.00;;;;;;4994866;28;20549;-75
2022/10/27 06:27:44;;;;;;;2.00;1.57;;;16.50;1.00;;;;;;4994977;28;20499;-76
2022/10/27 06:30:10;;;;;;;3.17;2.07;;;16.50;1.00;;;;;;4994474;28;20230;-76
2022/10/27 06:32:38;;;;;;;5.13;1.90;;;16.50;1.00;;;;;;4994215;28;20670;-76
2022/10/27 06:35:05;;;;;;;3.50;1.87;;;16.50;1.00;;;;;;4994450;28;20624;-74
2022/10/27 06:37:31;;;;;;;5.50;2.37;;;16.50;1.00;;;;;;4995641;28;20245;-75
2022/10/27 06:39:56;;;;;;;4.30;1.60;;;16.50;1.00;;;;;;4994661;28;20171;-76
2022/10/27 06:42:23;;;;;;;2.70;1.50;;;16.60;1.00;;;;;;4995534;28;20175;-75
2022/10/27 06:44:49;;;;;;;2.67;1.70;;;16.60;1.00;;;;;;4994925;28;20202;-75
2022/10/27 06:47:15;;;;;;;2.10;1.50;;;16.60;1.00;;;;;;4994120;28;20175;-74
2022/10/27 06:49:41;;;;;;;2.13;1.30;;;16.60;1.00;;;;;;4984027;28;20225;-75
2022/10/27 06:52:06;;;;;;;5.47;1.70;;;16.60;1.00;;;;;;4974826;28;20212;-75
2022/10/27 06:54:32;;;;;;;2.53;1.80;;;16.70;1.00;;;;;;4981138;28;20627;-75
2022/10/27 06:56:57;;;;;;;4.47;1.77;;;16.80;1.00;;;;;;4994154;28;20207;-75
2022/10/27 06:59:23;;;;;;;3.53;2.00;;;17.00;1.00;;;;;;4994338;28;20677;-73
2022/10/27 07:01:48;;;;;;;5.30;2.07;;;17.40;1.00;;;;;;4987253;28;20190;-73
2022/10/27 07:04:14;;;;;;;3.80;1.58;;;17.80;1.00;;;;;;4988038;28;20238;-74
2022/10/27 07:06:40;;;;;;;2.27;1.60;;;18.10;1.00;;;;;;4996557;28;20183;-75
2022/10/27 07:09:06;;;;;;;3.73;1.40;;;18.20;1.00;;;;;;4985286;28;20174;-75
2022/10/27 07:11:31;;;;;;;6.15;1.67;;;18.30;1.00;;;;;;5011183;28;20205;-75
2022/10/27 07:13:57;;;;;;;4.57;1.60;;;18.30;1.00;;;;;;4991193;28;20202;-76
2022/10/27 07:16:22;;;;;;;2.63;1.50;;;18.20;1.00;;;;;;5003947;28;20178;-75
2022/10/27 07:18:48;;;;;;;6.40;1.58;;;18.00;1.00;;;;;;4990371;28;20307;-74
2022/10/27 07:21:15;;;;;;;2.65;2.10;;;18.00;1.00;;;;;;4993043;28;20192;-72
2022/10/27 07:23:40;;;;;;;4.10;1.85;;;17.80;1.00;;;;;;4983144;28;20729;-73
2022/10/27 07:26:06;;;;;;;7.80;2.15;;;18.10;1.00;;;;;;4984241;28;20167;-72
2022/10/27 07:28:32;;;;;;;5.07;1.80;;;18.50;1.00;;;;;;4986245;28;20573;-73
2022/10/27 07:30:58;;;;;;;2.22;1.55;;;18.50;1.00;;;;;;4975998;28;20223;-72
2022/10/27 07:33:23;;;;;;;6.07;1.90;;;18.50;1.00;;;;;;4977054;28;20171;-75
2022/10/27 07:35:50;;;;;;;2.50;1.73;;;18.60;1.00;;;;;;4974838;28;20297;-74
2022/10/27 07:38:16;;;;;;;2.97;1.77;;;19.00;1.00;;;;;;4982867;28;20187;-75
2022/10/27 07:40:42;;;;;;;4.80;1.90;;;19.60;99.90;;;;;;4991535;28;20202;-75
2022/10/27 07:43:09;;;;;;;4.68;1.88;;;20.50;99.90;;;;;;4984378;28;20641;-74
2022/10/27 07:45:36;;;;;;;3.55;1.50;;;20.80;99.90;;;;;;4993266;28;20218;-75
2022/10/27 07:48:02;;;;;;;4.30;1.73;;;21.10;99.90;;;;;;4993762;28;20198;-75
2022/10/27 07:50:31;;;;;;;3.63;1.55;;;21.00;99.90;;;;;;4993595;28;20211;-75
2022/10/27 07:52:57;;;;;;;5.20;1.75;;;21.10;99.90;;;;;;4990040;28;20183;-74
2022/10/27 07:55:25;;;;;;;3.90;1.75;;;21.00;99.90;;;;;;4979103;28;20184;-75
2022/10/27 07:58:12;;;;;;;2.42;1.60;;;20.70;99.90;;;;;;4974351;28;20242;-75
2022/10/27 08:00:40;;;;;;;2.03;1.50;;;20.30;99.90;;;;;;4974130;28;20180;-75
2022/10/27 08:03:09;;;;;;;6.22;1.92;;;20.30;99.90;;;;;;4973723;28;20243;-74
2022/10/27 08:05:36;;;;;;;2.47;1.70;;;20.20;99.90;;;;;;4981633;28;20186;-73
2022/10/27 08:08:03;;;;;;;3.30;1.80;;;20.10;99.90;;;;;;4993014;28;20182;-73
2022/10/27 08:10:31;;;;;;;3.72;1.67;;;20.10;99.90;;;;;;4993232;28;20175;-73
2022/10/27 08:12:57;;;;;;;3.28;1.60;;;20.00;99.90;;;;;;4993291;28;20640;-73
2022/10/27 08:15:23;;;;;;;2.65;2.00;;;19.80;99.90;;;;;;4993315;28;20187;-74
2022/10/27 08:17:53;;;;;;;4.75;1.88;;;19.80;99.90;;;;;;4993218;28;20172;-74
2022/10/27 08:20:19;;;;;;;3.47;1.52;;;19.80;99.90;;;;;;4993152;28;20192;-76
2022/10/27 08:22:45;;;;;;;4.75;1.60;;;20.10;99.90;;;;;;4993319;28;20190;-74
2022/10/27 08:25:10;;;;;;;4.03;1.80;;;20.00;99.90;;;;;;4991706;28;20510;-74
2022/10/27 08:27:36;;;;;;;4.00;1.80;;;20.20;99.90;;;;;;4992561;28;20171;-74
2022/10/27 08:30:02;;;;;;;3.45;1.75;;;20.20;99.90;;;;;;4992681;28;20234;-75
2022/10/27 08:32:28;;;;;;;5.50;2.60;;;20.30;99.90;;;;;;4978915;28;20243;-73
2022/10/27 08:34:53;;;;;;;6.05;2.50;;;20.60;99.90;;;;;;4977841;28;20643;-74
2022/10/27 08:37:19;;;;;;;2.55;1.90;;;20.90;99.90;;;;;;4979733;28;20187;-74
2022/10/27 08:39:44;;;;;;;2.70;2.22;;;21.40;99.90;;;;;;4990931;28;20254;-73
2022/10/27 08:42:10;;;;;;;5.82;2.20;;;21.70;99.90;;;;;;4972073;28;20183;-74
2022/10/27 08:44:43;;;;;;;4.60;2.15;;;21.80;99.90;;;;;;4973872;28;20176;-74
2022/10/27 08:47:20;;;;;;;5.07;2.13;;;21.70;99.90;;;;;;4972755;28;20176;-73
2022/10/27 08:49:52;;;;;;;4.40;2.08;;;21.50;99.90;;;;;;4973155;28;20167;-73
2022/10/27 08:52:40;;;;;;;7.38;2.33;;;21.60;99.90;;;;;;4973185;28;20206;-74
2022/10/27 08:55:22;;;;;;;3.63;2.00;;;22.00;99.90;;;;;;4973390;28;20671;-75
2022/10/27 08:58:01;;;;;;;4.90;2.28;;;21.70;99.90;;;;;;4973544;28;20501;-74
2022/10/27 09:00:30;;;;;;;4.07;2.10;;;21.90;99.90;;;;;;4972862;28;20217;-76
2022/10/27 09:03:33;;;;;;;6.20;1.98;;;22.00;99.90;;;;;;4972875;28;20655;-74
2022/10/27 09:06:20;;;;;;;7.63;2.10;;;22.30;99.90;;;;;;4973752;28;20190;-74
2022/10/27 09:09:04;;;;;;;4.88;2.00;;;22.70;99.90;;;;;;4973002;28;20229;-75
2022/10/27 09:11:43;;;;;;;4.32;2.00;;;22.90;99.90;;;;;;4972794;28;20434;-75
2022/10/27 09:14:44;;;;;;;4.28;1.88;;;23.00;99.90;;;;;;4981175;28;20180;-73
2022/10/27 09:17:19;;;;;;;6.18;2.13;;;23.10;99.90;;;;;;4957336;28;20206;-74
2022/10/27 09:19:54;;;;;;;4.53;2.40;;;22.40;99.90;;;;;;4973401;28;20191;-73
2022/10/27 09:22:20;;;;;;;4.55;1.90;;;22.60;99.90;;;;;;4987186;28;20198;-74
2022/10/27 09:25:00;;;;;;;4.80;1.98;;;22.60;99.90;;;;;;4992997;28;20179;-74
2022/10/27 09:27:26;;;;;;;5.05;2.30;;;22.70;99.90;;;;;;4992370;28;20255;-73
2022/10/27 09:29:54;;;;;;;7.22;2.20;;;22.50;99.90;;;;;;4976288;28;20763;-78
2022/10/27 09:32:24;;;;;;;8.27;2.72;;;22.80;99.90;;;;;;4972377;28;20262;-76
2022/10/27 09:34:52;;;;;;;4.85;2.75;;;23.00;99.90;;;;;;4971670;28;20176;-76
2022/10/27 09:37:20;;;;;;;4.47;2.33;;;22.20;99.90;;;;;;4973567;28;20191;-75
2022/10/27 09:39:48;;;;;;;5.70;2.42;;;22.60;99.90;;;;;;4983210;28;21091;-76
2022/10/27 09:42:14;;;;;;;6.03;2.35;;;22.90;99.90;;;;;;4989326;28;20190;-77
2022/10/27 09:44:43;;;;;;;6.97;2.47;;;23.10;99.90;;;;;;4992211;28;20176;-76
2022/10/27 09:47:09;;;;;;;5.07;2.05;;;23.20;99.90;;;;;;4992205;28;20194;-76
2022/10/27 09:49:40;;;;;;;8.40;2.53;;;23.30;99.90;;;;;;4991399;28;20624;-76
2022/10/27 09:52:18;;;;;;;4.97;2.50;;;23.30;99.90;;;;;;4992739;28;20321;-77
2022/10/27 09:54:55;;;;;;;4.03;2.45;;;23.00;99.90;;;;;;4992252;28;20171;-77
2022/10/27 09:57:26;;;;;;;8.23;2.97;;;22.80;99.90;;;;;;4992583;28;20186;-76
2022/10/27 09:59:59;;;;;;;5.40;2.85;;;22.60;99.90;;;;;;4992474;28;20172;-76
2022/10/27 10:02:31;;;;;;;7.30;2.80;;;22.40;99.90;;;;;;4991475;28;20643;-76
2022/10/27 10:04:58;;;;;;;3.90;2.42;;;22.30;99.90;;;;;;4973877;28;20184;-76
2022/10/27 10:07:32;;;;;;;5.82;2.88;;;22.20;99.90;;;;;;4975113;28;20262;-75
2022/10/27 10:10:02;;;;;;;5.47;2.70;;;22.20;99.90;;;;;;4993696;28;20271;-75
2022/10/27 10:12:28;;;;;;;5.07;2.80;;;22.30;99.90;;;;;;4987200;28;20633;-76
2022/10/27 10:15:09;;;;;;;6.72;3.13;;;22.30;99.90;;;;;;4987532;28;20182;-75
2022/10/27 10:17:35;;;;;;;7.75;3.20;;;22.40;99.90;;;;;;4980960;28;20282;-76
2022/10/27 10:20:02;;;;;;;6.70;2.85;;;22.70;99.90;;;;;;4974364;28;20176;-76
2022/10/27 10:22:30;;;;;;;8.77;3.63;;;22.80;99.90;;;;;;4977390;28;20255;-75
2022/10/27 10:25:03;;;;;;;11.20;2.88;;;23.00;99.90;;;;;;4987691;28;20187;-76
2022/10/27 10:27:33;;;;;;;7.43;3.85;;;23.00;99.90;;;;;;4993320;28;20172;-76
2022/10/27 10:30:03;;;;;;;7.25;3.40;;;23.10;99.90;;;;;;4983453;28;20238;-76
2022/10/27 10:32:34;;;;;;;7.13;3.63;;;23.10;99.90;;;;;;4984550;28;20233;-76
2022/10/27 10:35:00;;;;;;;8.75;2.97;;;23.20;99.90;;;;;;4995038;28;20293;-76
2022/10/27 10:37:34;;;;;;;11.73;3.50;;;23.20;99.90;;;;;;4995693;28;20175;-77
2022/10/27 10:40:17;;;;;;;5.57;3.38;;;23.10;99.90;;;;;;4993421;28;20202;-75
2022/10/27 10:42:44;;;;;;;6.95;2.80;;;23.20;99.90;;;;;;4994828;28;20635;-76
2022/10/27 10:45:17;;;;;;;6.80;2.85;;;23.40;99.90;;;;;;4994422;28;20259;-76
2022/10/27 10:47:47;;;;;;;7.78;3.55;;;23.40;99.90;;;;;;4994424;28;20545;-76
2022/10/27 10:50:14;;;;;;;7.93;3.67;;;23.10;99.90;;;;;;4994436;28;20242;-74
2022/10/27 10:52:46;;;;;;;8.00;3.40;;;23.30;99.90;;;;;;4994550;28;20228;-76
2022/10/27 10:55:33;;;;;;;11.63;3.83;;;23.40;99.90;;;;;;4993360;28;20543;-77
2022/10/27 10:58:00;;;;;;;8.30;3.40;;;23.70;99.90;;;;;;4994681;28;20250;-76
2022/10/27 11:00:26;;;;;;;9.75;3.30;;;23.80;99.90;;;;;;4994909;28;20167;-75
2022/10/27 11:03:02;;;;;;;5.40;3.50;;;23.80;99.90;;;;;;4994919;28;20176;-74
2022/10/27 11:05:29;;;;;;;8.15;3.70;;;23.60;99.90;;;;;;4995098;28;20639;-75
2022/10/27 11:07:55;;;;;;;10.35;3.92;;;23.40;99.90;;;;;;4994599;28;20258;-75
2022/10/27 11:10:26;;;;;;;6.50;3.60;;;23.40;99.90;;;;;;4992948;28;20205;-75
2022/10/27 11:12:54;;;;;;;8.32;3.70;;;23.50;99.90;;;;;;4994174;28;20240;-76
2022/10/27 11:15:31;;;;;;;7.75;3.42;;;23.60;99.90;;;;;;4994663;28;20234;-74
2022/10/27 11:18:05;;;;;;;9.90;3.88;;;23.60;99.90;;;;;;4994076;28;20167;-76
2022/10/27 11:20:35;;;;;;;14.15;7.68;;;24.00;99.90;;;;;;4994413;28;20163;-74
2022/10/27 11:23:05;;;;;;;12.30;4.90;;;24.60;99.90;;;;;;4992901;28;20179;-75
2022/10/27 11:25:33;;;;;;;9.45;3.70;;;25.20;99.90;;;;;;4993709;28;20679;-78
2022/10/27 11:28:26;;;;;;;12.35;4.00;;;25.50;99.00;;;;;;4994768;28;20631;-77
2022/10/27 11:31:23;;;;;;;10.65;3.10;;;26.00;98.00;;;;;;4993657;28;20575;-74
2022/10/27 11:34:14;;;;;;;9.50;3.70;;;26.50;96.60;;;;;;5005381;28;20237;-74
2022/10/27 11:37:18;;;;;;;11.55;3.60;;;26.80;96.10;;;;;;4996493;28;20175;-76
2022/10/27 11:39:47;;;;;;;9.88;3.47;;;27.00;95.00;;;;;;4982727;28;20191;-78
2022/10/27 11:42:21;;;;;;;8.27;3.65;;;26.50;95.70;;;;;;4990011;28;20251;-77
2022/10/27 11:45:08;;;;;;;6.45;3.28;;;25.90;96.70;;;;;;5003562;28;20225;-77
2022/10/27 11:47:46;;;;;;;6.03;3.42;;;25.40;98.50;;;;;;4991388;28;20167;-77
2022/10/27 11:50:14;;;;;;;15.70;3.78;;;25.20;99.30;;;;;;4999451;28;20179;-76
2022/10/27 11:52:47;;;;;;;7.65;3.70;;;24.90;99.90;;;;;;5009274;28;20670;-76
2022/10/27 11:55:17;;;;;;;9.73;3.72;;;24.70;99.90;;;;;;4998070;28;20174;-75
2022/10/27 11:57:57;;;;;;;8.20;3.40;;;24.50;99.90;;;;;;5003639;28;20200;-75
2022/10/27 12:00:28;;;;;;;12.05;4.28;;;24.40;99.90;;;;;;5007031;28;20175;-74
2022/10/27 12:03:12;;;;;;;10.18;3.65;;;24.50;99.90;;;;;;4996331;28;20183;-76
2022/10/27 12:05:47;;;;;;;8.50;3.65;;;24.50;99.90;;;;;;5004574;28;20170;-76
2022/10/27 12:08:32;;;;;;;8.57;3.53;;;24.40;99.90;;;;;;5006346;28;20212;-75
2022/10/27 12:11:19;;;;;;;11.20;3.70;;;24.30;99.90;;;;;;4995855;28;20289;-74
2022/10/27 12:14:27;;;;;;;9.35;3.28;;;24.30;99.90;;;;;;5002607;28;20173;-75
2022/10/27 12:17:12;;;;;;;10.65;3.78;;;24.30;99.90;;;;;;5004986;28;20198;-75
2022/10/27 12:19:44;;;;;;;5.63;3.30;;;24.20;99.90;;;;;;5001617;28;20618;-75
2022/10/27 12:22:32;;;;;;;8.07;3.70;;;24.40;99.90;;;;;;4998794;28;20242;-76
2022/10/27 12:25:19;;;;;;;8.30;3.63;;;24.70;99.90;;;;;;5008650;28;20167;-75
2022/10/27 12:27:47;;;;;;;10.85;3.83;;;24.80;99.90;;;;;;5002326;28;20242;-77
2022/10/27 12:30:16;;;;;;;8.65;3.92;;;25.00;99.90;;;;;;4997289;28;20241;-75
2022/10/27 12:32:46;;;;;;;8.85;3.53;;;25.10;99.00;;;;;;5006509;28;20630;-74
2022/10/27 12:35:17;;;;;;;10.18;4.05;;;25.00;99.30;;;;;;4997248;28;20166;-74
2022/10/27 12:37:54;;;;;;;10.68;3.70;;;25.00;99.00;;;;;;5002478;28;20175;-75
2022/10/27 12:40:38;;;;;;;10.75;3.75;;;24.80;99.10;;;;;;5004731;28;20200;-75
2022/10/27 12:43:35;;;;;;;8.00;3.65;;;24.80;99.10;;;;;;4981332;28;20666;-74
2022/10/27 12:46:15;;;;;;;7.25;3.20;;;24.90;99.30;;;;;;4978495;28;20234;-75
2022/10/27 12:48:53;;;;;;;9.23;3.88;;;24.70;99.10;;;;;;4986592;28;20350;-74
2022/10/27 12:51:45;;;;;;;10.60;3.50;;;24.60;99.70;;;;;;4975918;28;20306;-74
2022/10/27 12:54:35;;;;;;;8.07;3.63;;;24.40;99.70;;;;;;4976512;28;20176;-74
2022/10/27 12:57:13;;;;;;;12.32;4.32;;;24.40;99.90;;;;;;4958245;28;20191;-74
2022/10/27 12:59:50;;;;;;;9.90;4.15;;;24.40;99.90;;;;;;4980753;28;20171;-73
2022/10/27 13:02:18;;;;;;;11.13;3.88;;;24.40;99.90;;;;;;4978225;28;20251;-74
2022/10/27 13:04:58;;;;;;;10.18;3.60;;;24.30;99.90;;;;;;4971847;28;20179;-74